createdAt,value
2023-01-29T00:01:57.156Z,3.86
2023-01-29T00:04:24.279Z,3.89
2023-01-29T00:06:51.130Z,3.95
2023-01-29T00:09:18.936Z,4.01
2023-01-29T00:11:45.736Z,4.04
2023-01-29T00:14:12.521Z,4.08
2023-01-29T00:16:39.387Z,4.12
2023-01-29T00:19:07.278Z,4.17
2023-01-29T00:21:34.102Z,4.19
2023-01-29T00:24:01.061Z,4.21
2023-01-29T00:26:28.381Z,4.27
2023-01-29T00:28:57.430Z,4.29
2023-01-29T00:31:26.089Z,4.33
2023-01-29T00:33:52.910Z,4.37
2023-01-29T00:36:21.701Z,4.40
2023-01-29T00:38:54.848Z,4.41
2023-01-29T00:41:40.389Z,4.44
2023-01-29T00:44:26.250Z,4.46
2023-01-29T00:46:53.157Z,4.45
2023-01-29T00:49:20.018Z,4.47
2023-01-29T00:52:06.755Z,4.47
2023-01-29T00:54:33.576Z,4.49
2023-01-29T00:57:01.780Z,4.48
2023-01-29T00:59:29.036Z,4.54
2023-01-29T01:02:14.588Z,4.56
2023-01-29T01:04:41.803Z,4.58
2023-01-29T01:07:08.559Z,4.61
2023-01-29T01:09:55.197Z,4.54
2023-01-29T01:12:22.710Z,4.66
2023-01-29T01:14:50.218Z,4.66
2023-01-29T01:17:17.483Z,4.67
2023-01-29T01:19:44.611Z,4.69
2023-01-29T01:22:11.429Z,4.68
2023-01-29T01:24:38.526Z,4.69
2023-01-29T01:27:05.967Z,4.74
2023-01-29T01:29:33.044Z,4.75
2023-01-29T01:32:00.109Z,4.76
2023-01-29T01:34:27.451Z,4.77
2023-01-29T01:36:56.462Z,4.78
2023-01-29T01:39:24.555Z,4.78
2023-01-29T01:41:55.778Z,4.80
2023-01-29T01:44:53.595Z,4.83
2023-01-29T01:47:47.186Z,4.85
2023-01-29T01:50:23.019Z,4.88
2023-01-29T01:52:53.469Z,4.88
2023-01-29T01:55:23.690Z,4.88
2023-01-29T01:57:56.293Z,4.88
2023-01-29T02:00:26.251Z,4.88
2023-01-29T02:03:12.902Z,4.87
2023-01-29T02:05:59.535Z,4.90
2023-01-29T02:08:59.693Z,4.80
2023-01-29T02:11:26.500Z,4.91
2023-01-29T02:13:53.861Z,4.93
2023-01-29T02:16:22.516Z,4.92
2023-01-29T02:18:50.415Z,4.97
2023-01-29T02:21:49.254Z,4.97
2023-01-29T02:24:25.169Z,4.97
2023-01-29T02:27:00.851Z,4.97
2023-01-29T02:29:45.976Z,4.97
2023-01-29T02:32:21.298Z,4.97
2023-01-29T02:35:29.562Z,4.95
2023-01-29T02:38:13.274Z,4.96
2023-01-29T02:40:49.093Z,4.98
2023-01-29T02:43:18.739Z,4.97
2023-01-29T02:45:58.688Z,4.95
2023-01-29T02:48:28.531Z,4.95
2023-01-29T02:51:00.953Z,4.96
2023-01-29T02:53:45.464Z,4.97
2023-01-29T02:56:20.994Z,4.95
2023-01-29T02:59:15.485Z,4.96
2023-01-29T03:02:11.793Z,4.97
2023-01-29T03:04:46.577Z,4.97
2023-01-29T03:07:41.328Z,4.99
2023-01-29T03:10:21.899Z,5.00
2023-01-29T03:13:08.768Z,5.03
2023-01-29T03:15:51.399Z,5.02
2023-01-29T03:18:22.680Z,5.03
2023-01-29T03:20:58.621Z,5.05
2023-01-29T03:23:50.849Z,5.07
2023-01-29T03:26:38.742Z,5.06
2023-01-29T03:29:25.851Z,5.06
2023-01-29T03:32:08.154Z,5.08
2023-01-29T03:34:52.498Z,5.11
2023-01-29T03:37:35.372Z,5.12
2023-01-29T03:40:04.050Z,5.14
2023-01-29T03:42:56.813Z,5.15
2023-01-29T03:45:43.334Z,5.15
2023-01-29T03:48:21.845Z,5.15
2023-01-29T03:51:13.705Z,5.13
2023-01-29T03:54:13.830Z,5.11
2023-01-29T03:56:57.708Z,5.10
2023-01-29T03:59:38.187Z,5.09
2023-01-29T04:02:18.196Z,5.10
2023-01-29T04:04:50.253Z,5.08
2023-01-29T04:07:24.600Z,5.07
2023-01-29T04:10:09.960Z,5.06
2023-01-29T04:12:42.716Z,5.07
2023-01-29T04:15:15.433Z,5.11
2023-01-29T04:17:47.748Z,5.13
2023-01-29T04:20:14.891Z,5.13
2023-01-29T04:22:46.316Z,5.15
2023-01-29T04:25:18.253Z,5.12
2023-01-29T04:28:03.434Z,5.14
2023-01-29T04:30:37.761Z,5.16
2023-01-29T04:33:27.444Z,5.15
2023-01-29T04:36:19.252Z,5.17
2023-01-29T04:39:18.022Z,5.19
2023-01-29T04:42:09.789Z,5.20
2023-01-29T04:44:54.184Z,5.23
2023-01-29T04:47:26.594Z,5.21
2023-01-29T04:50:16.890Z,5.24
2023-01-29T04:53:07.567Z,5.23
2023-01-29T04:55:58.506Z,5.25
2023-01-29T04:58:33.402Z,5.26
2023-01-29T05:01:02.386Z,5.26
2023-01-29T05:03:31.418Z,5.27
2023-01-29T05:06:00.767Z,5.27
2023-01-29T05:08:30.827Z,5.27
2023-01-29T05:10:59.453Z,5.26
2023-01-29T05:13:28.519Z,5.26
2023-01-29T05:16:02.648Z,5.25
2023-01-29T05:18:30.791Z,5.27
2023-01-29T05:21:00.239Z,5.26
2023-01-29T05:23:27.017Z,5.24
2023-01-29T05:25:53.848Z,5.23
2023-01-29T05:28:20.580Z,5.20
2023-01-29T05:30:53.228Z,5.17
2023-01-29T05:33:29.196Z,5.14
2023-01-29T05:35:57.034Z,5.08
2023-01-29T05:38:24.123Z,5.05
2023-01-29T05:40:51.604Z,5.00
2023-01-29T05:43:23.429Z,4.97
2023-01-29T05:45:58.964Z,4.98
2023-01-29T05:48:28.934Z,4.99
2023-01-29T05:51:03.789Z,5.03
2023-01-29T05:53:31.757Z,5.04
2023-01-29T05:56:01.540Z,5.05
2023-01-29T05:58:30.153Z,5.07
2023-01-29T06:00:56.928Z,5.08
2023-01-29T06:03:23.753Z,5.08
2023-01-29T06:05:50.695Z,5.09
2023-01-29T06:08:17.412Z,5.10
2023-01-29T06:10:44.160Z,5.10
2023-01-29T06:13:10.968Z,5.12
2023-01-29T06:15:39.977Z,5.10
2023-01-29T06:18:06.692Z,5.11
2023-01-29T06:20:33.464Z,5.11
2023-01-29T06:23:00.412Z,5.12
2023-01-29T06:25:27.190Z,5.12
2023-01-29T06:27:54.096Z,5.12
2023-01-29T06:30:20.887Z,5.12
2023-01-29T06:32:47.644Z,5.13
2023-01-29T06:35:14.408Z,5.13
2023-01-29T06:37:41.437Z,5.13
2023-01-29T06:40:10.147Z,5.13
2023-01-29T06:42:36.936Z,5.04
2023-01-29T06:45:03.988Z,5.11
2023-01-29T06:47:31.166Z,5.09
2023-01-29T06:49:57.908Z,5.07
2023-01-29T06:52:28.961Z,5.07
2023-01-29T06:54:56.783Z,5.08
2023-01-29T06:57:24.176Z,5.08
2023-01-29T06:59:50.912Z,5.08
2023-01-29T07:02:17.829Z,5.11
2023-01-29T07:04:44.664Z,5.12
2023-01-29T07:07:13.419Z,5.14
2023-01-29T07:09:41.077Z,5.15
2023-01-29T07:12:09.121Z,5.19
2023-01-29T07:14:36.043Z,5.17
2023-01-29T07:17:03.057Z,5.23
2023-01-29T07:19:29.817Z,5.25
2023-01-29T07:21:57.020Z,5.28
2023-01-29T07:24:24.591Z,5.29
2023-01-29T07:26:51.499Z,5.31
2023-01-29T07:29:18.332Z,5.34
2023-01-29T07:31:45.335Z,5.35
2023-01-29T07:34:12.123Z,5.38
2023-01-29T07:36:38.857Z,5.41
2023-01-29T07:39:05.599Z,5.41
2023-01-29T07:41:32.359Z,5.42
2023-01-29T07:43:59.085Z,5.45
2023-01-29T07:46:25.819Z,5.45
2023-01-29T07:48:52.605Z,5.47
2023-01-29T07:51:21.470Z,5.49
2023-01-29T07:53:48.217Z,5.50
2023-01-29T07:56:15.131Z,5.50
2023-01-29T07:58:41.929Z,5.49
2023-01-29T08:01:08.991Z,5.53
2023-01-29T08:03:36.234Z,5.49
2023-01-29T08:06:04.521Z,5.57
2023-01-29T08:08:31.599Z,5.59
2023-01-29T08:11:01.978Z,5.62
2023-01-29T08:13:28.749Z,5.63
2023-01-29T08:16:00.303Z,5.65
2023-01-29T08:18:27.147Z,5.65
2023-01-29T08:20:54.477Z,5.69
2023-01-29T08:23:21.203Z,5.67
2023-01-29T08:25:48.107Z,5.71
2023-01-29T08:28:15.059Z,5.73
2023-01-29T08:30:41.814Z,5.77
2023-01-29T08:33:08.612Z,5.79
2023-01-29T08:35:35.569Z,5.78
2023-01-29T08:38:03.786Z,5.88
2023-01-29T08:40:33.304Z,5.91
2023-01-29T08:43:07.821Z,5.96
2023-01-29T08:45:38.572Z,5.97
2023-01-29T08:48:05.556Z,5.98
2023-01-29T08:50:34.948Z,6.01
2023-01-29T08:53:03.826Z,6.03
2023-01-29T08:55:30.602Z,6.05
2023-01-29T08:57:57.512Z,6.07
2023-01-29T09:00:24.808Z,6.09
2023-01-29T09:02:51.583Z,6.10
2023-01-29T09:05:18.770Z,6.13
2023-01-29T09:07:45.954Z,6.17
2023-01-29T09:10:12.791Z,6.20
2023-01-29T09:12:39.630Z,6.25
2023-01-29T09:15:06.921Z,6.28
2023-01-29T09:17:33.679Z,6.30
2023-01-29T09:20:00.423Z,6.35
2023-01-29T09:22:27.421Z,6.40
2023-01-29T09:24:54.202Z,6.46
2023-01-29T09:27:20.930Z,6.52
2023-01-29T09:29:47.849Z,6.58
2023-01-29T09:32:15.578Z,6.61
2023-01-29T09:34:43.560Z,6.66
2023-01-29T09:37:10.321Z,6.70
2023-01-29T09:39:37.063Z,6.64
2023-01-29T09:42:31.003Z,6.73
2023-01-29T09:44:57.668Z,6.77
2023-01-29T09:47:26.806Z,6.78
2023-01-29T09:50:01.781Z,6.81
2023-01-29T09:52:41.571Z,6.83
2023-01-29T09:55:15.408Z,6.87
2023-01-29T09:58:03.911Z,6.90
2023-01-29T10:00:36.087Z,6.95
2023-01-29T10:03:09.038Z,6.99
2023-01-29T10:05:56.978Z,7.04
2023-01-29T10:08:50.079Z,7.10
2023-01-29T10:11:35.168Z,7.17
2023-01-29T10:14:15.006Z,7.25
2023-01-29T10:16:47.876Z,7.33
2023-01-29T10:19:33.415Z,7.40
2023-01-29T10:22:18.642Z,7.45
2023-01-29T10:24:45.316Z,7.51
2023-01-29T10:27:17.388Z,7.55
2023-01-29T10:29:47.018Z,7.60
2023-01-29T10:32:23.737Z,7.64
2023-01-29T10:35:03.036Z,7.72
2023-01-29T10:37:43.669Z,7.81
2023-01-29T10:40:18.860Z,7.88
2023-01-29T10:43:09.005Z,7.94
2023-01-29T10:46:02.790Z,8.01
2023-01-29T10:48:40.516Z,8.10
2023-01-29T10:51:27.482Z,8.15
2023-01-29T10:54:24.988Z,8.20
2023-01-29T10:57:29.266Z,8.26
2023-01-29T11:00:21.645Z,8.32
2023-01-29T11:02:50.500Z,8.39
2023-01-29T11:05:28.284Z,8.46
2023-01-29T11:08:05.442Z,8.52
2023-01-29T11:10:37.645Z,8.56
2023-01-29T11:13:05.967Z,8.61
2023-01-29T11:15:35.109Z,8.68
2023-01-29T11:18:06.354Z,8.72
2023-01-29T11:20:34.071Z,8.75
2023-01-29T11:23:00.894Z,8.81
2023-01-29T11:25:29.938Z,8.89
2023-01-29T11:28:00.612Z,8.94
2023-01-29T11:30:32.799Z,9.03
2023-01-29T11:33:05.386Z,9.10
2023-01-29T11:35:33.544Z,9.15
2023-01-29T11:38:09.529Z,9.23
2023-01-29T11:40:39.249Z,9.31
2023-01-29T11:43:20.246Z,9.38
2023-01-29T11:45:49.995Z,9.46
2023-01-29T11:48:19.757Z,9.53
2023-01-29T11:50:56.289Z,9.64
2023-01-29T11:53:35.703Z,9.74
2023-01-29T11:56:19.660Z,9.82
2023-01-29T11:58:48.720Z,9.92
2023-01-29T12:01:19.401Z,9.98
2023-01-29T12:03:54.373Z,10.06
2023-01-29T12:06:33.963Z,10.17
2023-01-29T12:09:03.956Z,10.30
2023-01-29T12:11:32.906Z,10.43
2023-01-29T12:14:33.489Z,10.54
2023-01-29T12:17:04.143Z,10.68
2023-01-29T12:19:54.763Z,10.73
2023-01-29T12:22:34.691Z,10.91
2023-01-29T12:25:12.019Z,11.09
2023-01-29T12:27:46.509Z,11.25
2023-01-29T12:30:22.312Z,11.34
2023-01-29T12:32:49.816Z,11.45
2023-01-29T12:35:22.459Z,11.49
2023-01-29T12:38:12.011Z,11.54
2023-01-29T12:40:43.751Z,11.68
2023-01-29T12:43:27.732Z,11.72
2023-01-29T12:45:58.101Z,11.82
2023-01-29T12:48:30.698Z,11.82
2023-01-29T12:51:14.112Z,11.80
2023-01-29T12:53:51.309Z,11.90
2023-01-29T12:56:33.168Z,11.82
2023-01-29T12:59:04.912Z,11.88
2023-01-29T13:01:37.084Z,11.91
2023-01-29T13:04:09.781Z,11.89
2023-01-29T13:06:45.439Z,11.69
2023-01-29T13:09:17.651Z,11.64
2023-01-29T13:11:50.179Z,11.59
2023-01-29T13:14:25.461Z,11.54
2023-01-29T13:17:01.481Z,11.51
2023-01-29T13:19:40.351Z,11.56
2023-01-29T13:22:36.300Z,11.67
2023-01-29T13:25:05.862Z,11.80
2023-01-29T13:27:35.349Z,11.83
2023-01-29T13:30:02.848Z,11.89
2023-01-29T13:32:32.728Z,11.82
2023-01-29T13:35:12.866Z,11.88
2023-01-29T13:37:49.128Z,11.83
2023-01-29T13:40:38.359Z,11.78
2023-01-29T13:43:05.453Z,11.84
2023-01-29T13:45:43.440Z,11.83
2023-01-29T13:48:32.556Z,11.77
2023-01-29T13:51:05.043Z,11.73
2023-01-29T13:53:41.939Z,11.73
2023-01-29T13:56:41.773Z,11.70
2023-01-29T13:59:22.220Z,11.65
2023-01-29T14:01:48.974Z,11.74
2023-01-29T14:04:18.870Z,11.73
2023-01-29T14:06:49.339Z,11.73
2023-01-29T14:09:37.821Z,11.72
2023-01-29T14:12:28.581Z,11.86
2023-01-29T14:14:55.224Z,11.85
2023-01-29T14:17:23.016Z,12.02
2023-01-29T14:20:05.865Z,12.03
2023-01-29T14:22:34.576Z,12.18
2023-01-29T14:25:05.256Z,12.22
2023-01-29T14:27:32.766Z,12.35
2023-01-29T14:30:09.956Z,12.41
2023-01-29T14:32:40.544Z,12.43
2023-01-29T14:35:20.340Z,12.38
2023-01-29T14:37:53.891Z,12.48
2023-01-29T14:40:20.824Z,12.49
2023-01-29T14:43:09.119Z,12.31
2023-01-29T14:45:44.682Z,12.40
2023-01-29T14:48:11.468Z,12.33
2023-01-29T14:50:40.760Z,12.29
2023-01-29T14:53:25.616Z,12.30
2023-01-29T14:56:12.968Z,12.20
2023-01-29T14:58:50.618Z,12.22
2023-01-29T15:01:25.391Z,12.14
2023-01-29T15:04:15.308Z,12.01
2023-01-29T15:06:46.861Z,12.09
2023-01-29T15:09:24.838Z,11.99
2023-01-29T15:12:24.472Z,11.83
2023-01-29T15:15:02.173Z,11.83
2023-01-29T15:17:41.917Z,11.76
2023-01-29T15:20:28.865Z,11.66
2023-01-29T15:22:55.741Z,11.62
2023-01-29T15:25:22.979Z,11.61
2023-01-29T15:27:50.651Z,11.69
2023-01-29T15:30:23.782Z,11.60
2023-01-29T15:32:50.999Z,11.57
2023-01-29T15:35:29.611Z,11.56
2023-01-29T15:38:07.046Z,11.46
2023-01-29T15:40:34.793Z,11.43
2023-01-29T15:43:01.711Z,11.44
2023-01-29T15:45:33.711Z,11.37
2023-01-29T15:48:13.957Z,11.30
2023-01-29T15:50:42.443Z,11.36
2023-01-29T15:53:21.894Z,11.22
2023-01-29T15:55:48.932Z,11.28
2023-01-29T15:58:24.071Z,11.22
2023-01-29T16:00:54.281Z,11.22
2023-01-29T16:03:23.988Z,11.19
2023-01-29T16:05:52.537Z,11.15
2023-01-29T16:08:22.019Z,11.10
2023-01-29T16:10:53.986Z,11.12
2023-01-29T16:13:27.671Z,11.06
2023-01-29T16:15:57.628Z,11.07
2023-01-29T16:18:31.320Z,11.07
2023-01-29T16:21:02.246Z,11.04
2023-01-29T16:23:35.052Z,10.94
2023-01-29T16:26:05.911Z,10.90
2023-01-29T16:28:32.867Z,10.86
2023-01-29T16:31:03.870Z,10.83
2023-01-29T16:33:37.734Z,10.79
2023-01-29T16:36:18.697Z,10.82
2023-01-29T16:38:55.803Z,10.73
2023-01-29T16:41:22.554Z,10.76
2023-01-29T16:43:55.047Z,10.77
2023-01-29T16:46:37.850Z,10.78
2023-01-29T16:49:26.625Z,10.70
2023-01-29T16:51:54.836Z,10.70
2023-01-29T16:54:25.087Z,10.64
2023-01-29T16:56:55.397Z,10.67
2023-01-29T16:59:33.520Z,10.62
2023-01-29T17:02:00.808Z,10.64
2023-01-29T17:04:28.331Z,10.62
2023-01-29T17:07:01.680Z,10.61
2023-01-29T17:09:37.522Z,10.52
2023-01-29T17:12:16.278Z,10.53
2023-01-29T17:14:53.555Z,10.52
2023-01-29T17:17:20.346Z,10.55
2023-01-29T17:19:47.840Z,10.54
2023-01-29T17:22:15.258Z,10.52
2023-01-29T17:24:42.747Z,10.48
2023-01-29T17:27:23.099Z,10.48
2023-01-29T17:29:52.037Z,10.48
2023-01-29T17:32:19.373Z,10.47
2023-01-29T17:34:47.147Z,10.43
2023-01-29T17:37:15.636Z,10.35
2023-01-29T17:39:48.598Z,10.25
2023-01-29T17:42:15.410Z,10.28
2023-01-29T17:44:43.291Z,10.27
2023-01-29T17:47:15.219Z,10.28
2023-01-29T17:49:42.816Z,10.32
2023-01-29T17:52:10.177Z,10.39
2023-01-29T17:54:37.203Z,10.41
2023-01-29T17:57:04.180Z,10.47
2023-01-29T17:59:33.241Z,10.47
2023-01-29T18:02:00.254Z,10.44
2023-01-29T18:04:27.210Z,10.47
2023-01-29T18:06:55.831Z,10.47
2023-01-29T18:09:22.610Z,10.45
2023-01-29T18:11:50.618Z,10.39
2023-01-29T18:14:17.783Z,10.38
2023-01-29T18:16:45.217Z,10.35
2023-01-29T18:19:18.873Z,10.30
2023-01-29T18:21:45.644Z,10.29
2023-01-29T18:24:12.361Z,10.28
2023-01-29T18:26:39.271Z,10.27
2023-01-29T18:29:06.199Z,10.26
2023-01-29T18:31:32.951Z,10.25
2023-01-29T18:33:59.717Z,10.23
2023-01-29T18:36:26.545Z,10.21
2023-01-29T18:38:53.369Z,10.19
2023-01-29T18:41:20.134Z,10.24
2023-01-29T18:43:46.876Z,10.25
2023-01-29T18:46:13.676Z,10.24
2023-01-29T18:48:42.508Z,10.26
2023-01-29T18:51:09.613Z,10.25
2023-01-29T18:53:36.580Z,10.23
2023-01-29T18:56:05.677Z,10.32
2023-01-29T18:58:36.664Z,10.35
2023-01-29T19:01:09.309Z,10.34
2023-01-29T19:03:36.898Z,10.32
2023-01-29T19:06:05.552Z,10.37
2023-01-29T19:08:33.243Z,10.38
2023-01-29T19:11:05.595Z,10.41
2023-01-29T19:13:33.031Z,10.41
2023-01-29T19:15:59.897Z,10.45
2023-01-29T19:18:29.912Z,10.44
2023-01-29T19:20:56.637Z,10.46
2023-01-29T19:23:23.419Z,10.46
2023-01-29T19:25:50.186Z,10.47
2023-01-29T19:28:17.022Z,10.46
2023-01-29T19:30:43.809Z,10.46
2023-01-29T19:33:10.899Z,10.47
2023-01-29T19:35:37.660Z,10.46
2023-01-29T19:38:04.532Z,10.46
2023-01-29T19:40:31.281Z,10.46
2023-01-29T19:42:58.561Z,10.46
2023-01-29T19:45:49.379Z,10.43
2023-01-29T19:48:14.719Z,10.40
2023-01-29T19:50:42.521Z,10.41
2023-01-29T19:53:09.912Z,10.29
2023-01-29T19:55:36.731Z,10.17
2023-01-29T19:58:04.844Z,10.13
2023-01-29T20:00:31.697Z,9.94
2023-01-29T20:02:58.447Z,9.79
2023-01-29T20:05:27.216Z,9.81
2023-01-29T20:07:54.232Z,9.68
2023-01-29T20:10:21.381Z,9.58
2023-01-29T20:12:48.175Z,9.66
2023-01-29T20:15:15.893Z,9.67
2023-01-29T20:17:43.728Z,9.64
2023-01-29T20:20:11.014Z,9.63
2023-01-29T20:22:37.788Z,9.55
2023-01-29T20:25:04.663Z,9.52
2023-01-29T20:27:31.476Z,9.50
2023-01-29T20:29:58.403Z,9.48
2023-01-29T20:32:25.136Z,9.47
2023-01-29T20:34:52.539Z,9.37
2023-01-29T20:37:19.807Z,9.37
2023-01-29T20:39:47.044Z,9.38
2023-01-29T20:42:14.004Z,9.33
2023-01-29T20:44:41.092Z,9.32
2023-01-29T20:47:08.623Z,9.26
2023-01-29T20:49:35.479Z,9.23
2023-01-29T20:52:02.298Z,9.21
2023-01-29T20:54:30.148Z,9.17
2023-01-29T20:56:57.180Z,9.17
2023-01-29T20:59:24.032Z,9.17
2023-01-29T21:01:50.857Z,9.13
2023-01-29T21:04:17.847Z,9.08
2023-01-29T21:06:44.644Z,9.03
2023-01-29T21:09:11.415Z,8.95
2023-01-29T21:11:38.166Z,8.90
2023-01-29T21:14:05.051Z,9.01
2023-01-29T21:16:31.864Z,8.97
2023-01-29T21:19:01.308Z,8.97
2023-01-29T21:21:28.247Z,8.89
2023-01-29T21:23:55.007Z,8.85
2023-01-29T21:26:23.502Z,8.89
2023-01-29T21:28:50.316Z,8.90
2023-01-29T21:31:17.822Z,8.89
2023-01-29T21:33:45.051Z,8.83
2023-01-29T21:36:12.592Z,8.81
2023-01-29T21:38:40.101Z,8.82
2023-01-29T21:41:10.034Z,8.71
2023-01-29T21:43:37.474Z,8.66
2023-01-29T21:46:14.041Z,8.63
2023-01-29T21:48:40.990Z,8.58
2023-01-29T21:51:08.128Z,8.57
2023-01-29T21:53:35.361Z,8.54
2023-01-29T21:56:04.223Z,8.53
2023-01-29T21:58:32.185Z,8.55
2023-01-29T22:01:18.460Z,8.49
2023-01-29T22:03:47.414Z,8.47
2023-01-29T22:06:14.928Z,8.44
2023-01-29T22:08:41.687Z,8.43
2023-01-29T22:11:09.315Z,8.42
2023-01-29T22:13:36.293Z,8.25
2023-01-29T22:16:03.098Z,8.34
2023-01-29T22:18:29.869Z,8.31
2023-01-29T22:20:57.126Z,8.25
2023-01-29T22:23:24.736Z,8.23
2023-01-29T22:25:51.469Z,8.21
2023-01-29T22:28:18.991Z,8.11
2023-01-29T22:30:45.935Z,8.11
2023-01-29T22:33:13.008Z,8.01
2023-01-29T22:35:39.817Z,8.02
2023-01-29T22:38:06.706Z,8.00
2023-01-29T22:40:33.444Z,7.93
2023-01-29T22:43:00.476Z,7.87
2023-01-29T22:45:27.439Z,7.80
2023-01-29T22:47:54.179Z,7.75
2023-01-29T22:50:20.988Z,7.62
2023-01-29T22:52:54.199Z,7.43
2023-01-29T22:55:21.169Z,7.24
2023-01-29T22:57:51.165Z,7.08
2023-01-29T23:00:18.724Z,7.01
2023-01-29T23:02:49.681Z,7.01
2023-01-29T23:05:17.292Z,7.03
2023-01-29T23:07:44.755Z,7.09
2023-01-29T23:10:14.477Z,7.14
2023-01-29T23:12:41.655Z,7.18
2023-01-29T23:15:08.626Z,7.22
2023-01-29T23:17:35.453Z,7.22
2023-01-29T23:20:02.247Z,7.16
2023-01-29T23:22:28.988Z,7.25
2023-01-29T23:24:56.539Z,7.27
2023-01-29T23:27:23.379Z,7.35
2023-01-29T23:29:50.171Z,7.39
2023-01-29T23:32:19.817Z,7.42
2023-01-29T23:34:46.807Z,7.42
2023-01-29T23:37:13.999Z,7.43
2023-01-29T23:39:40.791Z,7.42
2023-01-29T23:42:07.549Z,7.39
2023-01-29T23:44:34.317Z,7.35
2023-01-29T23:47:01.112Z,7.40
2023-01-29T23:49:27.835Z,7.41
2023-01-29T23:51:54.621Z,7.44
2023-01-29T23:54:21.400Z,7.49
2023-01-29T23:56:48.584Z,7.47
2023-01-29T23:59:15.747Z,7.49
